createdAt,value
2022-08-28T00:00:41.129Z,18.83
2022-08-28T00:01:41.153Z,18.77
2022-08-28T00:02:41.277Z,18.70
2022-08-28T00:03:41.279Z,18.72
2022-08-28T00:04:41.370Z,18.68
2022-08-28T00:05:41.382Z,18.68
2022-08-28T00:06:41.410Z,18.73
2022-08-28T00:07:44.364Z,18.64
2022-08-28T00:08:41.534Z,18.68
2022-08-28T00:09:41.563Z,18.70
2022-08-28T00:10:41.616Z,18.70
2022-08-28T00:11:41.666Z,18.68
2022-08-28T00:12:41.716Z,18.68
2022-08-28T00:13:41.799Z,18.67
2022-08-28T00:14:41.819Z,18.65
2022-08-28T00:15:41.957Z,18.67
2022-08-28T00:16:41.922Z,18.61
2022-08-28T00:17:41.971Z,18.67
2022-08-28T00:18:42.068Z,18.64
2022-08-28T00:19:42.070Z,18.70
2022-08-28T00:20:42.120Z,18.72
2022-08-28T00:22:03.201Z,18.67
2022-08-28T00:22:42.225Z,18.77
2022-08-28T00:23:43.261Z,18.74
2022-08-28T00:24:42.326Z,18.79
2022-08-28T00:25:42.403Z,18.73
2022-08-28T00:26:42.427Z,18.68
2022-08-28T00:27:42.476Z,18.62
2022-08-28T00:28:42.528Z,18.68
2022-08-28T00:29:42.582Z,18.64
2022-08-28T00:30:42.660Z,18.73
2022-08-28T00:31:42.754Z,18.68
2022-08-28T00:32:42.736Z,18.59
2022-08-28T00:33:42.783Z,18.64
2022-08-28T00:34:42.869Z,18.57
2022-08-28T00:35:42.886Z,18.54
2022-08-28T00:36:42.936Z,18.49
2022-08-28T00:37:42.990Z,18.57
2022-08-28T00:38:43.037Z,18.55
2022-08-28T00:39:43.114Z,18.43
2022-08-28T00:40:43.210Z,18.49
2022-08-28T00:41:43.189Z,18.55
2022-08-28T00:42:43.240Z,18.57
2022-08-28T00:43:43.294Z,18.54
2022-08-28T00:44:43.373Z,18.54
2022-08-28T00:45:43.398Z,18.44
2022-08-28T00:46:43.479Z,18.46
2022-08-28T00:47:43.496Z,18.39
2022-08-28T00:48:43.548Z,18.44
2022-08-28T00:49:43.625Z,18.43
2022-08-28T00:50:43.648Z,18.49
2022-08-28T00:51:43.699Z,18.49
2022-08-28T00:52:43.769Z,18.58
2022-08-28T00:53:43.797Z,18.52
2022-08-28T00:54:58.361Z,18.52
2022-08-28T00:55:43.905Z,18.52
2022-08-28T00:56:43.951Z,18.46
2022-08-28T00:57:44.028Z,18.58
2022-08-28T00:58:44.054Z,18.50
2022-08-28T00:59:44.102Z,18.54
2022-08-28T01:00:44.157Z,18.52
2022-08-28T01:01:44.291Z,18.52
2022-08-28T01:02:44.323Z,18.57
2022-08-28T01:03:44.308Z,18.61
2022-08-28T01:04:44.361Z,18.72
2022-08-28T01:05:44.411Z,18.64
2022-08-28T01:06:44.491Z,18.70
2022-08-28T01:07:44.517Z,18.70
2022-08-28T01:08:44.562Z,18.61
2022-08-28T01:09:44.617Z,18.59
2022-08-28T01:10:44.670Z,18.52
2022-08-28T01:11:44.750Z,18.52
2022-08-28T01:12:44.765Z,18.52
2022-08-28T01:13:44.831Z,18.49
2022-08-28T01:14:44.867Z,18.62
2022-08-28T01:15:44.994Z,18.59
2022-08-28T01:16:44.969Z,18.47
2022-08-28T01:17:45.031Z,18.55
2022-08-28T01:18:45.076Z,18.59
2022-08-28T01:19:45.125Z,18.67
2022-08-28T01:20:45.210Z,18.61
2022-08-28T01:21:45.231Z,18.52
2022-08-28T01:22:45.272Z,18.65
2022-08-28T01:23:45.336Z,18.54
2022-08-28T01:24:45.375Z,18.57
2022-08-28T01:25:45.458Z,18.67
2022-08-28T01:26:45.478Z,18.65
2022-08-28T01:27:45.539Z,18.65
2022-08-28T01:28:45.578Z,18.58
2022-08-28T01:29:45.630Z,18.68
2022-08-28T01:30:45.784Z,18.64
2022-08-28T01:31:45.733Z,18.64
2022-08-28T01:32:45.782Z,18.64
2022-08-28T01:33:45.835Z,18.70
2022-08-28T01:34:45.923Z,18.79
2022-08-28T01:35:45.935Z,18.80
2022-08-28T01:36:45.992Z,18.64
2022-08-28T01:37:46.036Z,18.73
2022-08-28T01:38:46.086Z,18.68
2022-08-28T01:39:46.163Z,18.64
2022-08-28T01:40:46.190Z,18.65
2022-08-28T01:41:46.243Z,18.70
2022-08-28T01:42:46.292Z,18.68
2022-08-28T01:43:46.343Z,18.76
2022-08-28T01:44:46.424Z,18.72
2022-08-28T01:45:46.443Z,18.72
2022-08-28T01:46:46.697Z,18.74
2022-08-28T01:47:46.556Z,18.70
2022-08-28T01:48:46.603Z,18.74
2022-08-28T01:49:46.648Z,18.67
2022-08-28T01:50:46.698Z,18.70
2022-08-28T01:51:46.779Z,18.62
2022-08-28T01:52:46.799Z,18.64
2022-08-28T01:53:46.854Z,18.64
2022-08-28T01:54:46.903Z,18.64
2022-08-28T01:55:46.958Z,18.47
2022-08-28T01:56:47.040Z,18.52
2022-08-28T01:57:47.057Z,18.52
2022-08-28T01:58:47.109Z,18.61
2022-08-28T01:59:47.160Z,18.52
2022-08-28T02:00:47.206Z,18.42
2022-08-28T02:01:47.346Z,18.54
2022-08-28T02:02:47.311Z,18.50
2022-08-28T02:03:47.465Z,18.39
2022-08-28T02:04:48.320Z,18.37
2022-08-28T02:05:47.463Z,18.34
2022-08-28T02:06:47.518Z,18.34
2022-08-28T02:07:47.565Z,18.36
2022-08-28T02:08:47.639Z,18.24
2022-08-28T02:09:47.667Z,18.25
2022-08-28T02:10:47.724Z,18.29
2022-08-28T02:11:47.767Z,18.31
2022-08-28T02:12:47.820Z,18.28
2022-08-28T02:13:47.897Z,18.28
2022-08-28T02:14:47.921Z,18.25
2022-08-28T02:15:47.997Z,18.22
2022-08-28T02:16:48.021Z,18.21
2022-08-28T02:17:48.073Z,18.22
2022-08-28T02:18:48.147Z,18.22
2022-08-28T02:19:48.173Z,18.21
2022-08-28T02:20:48.259Z,18.13
2022-08-28T02:21:48.277Z,18.12
2022-08-28T02:22:48.326Z,18.15
2022-08-28T02:23:48.379Z,18.15
2022-08-28T02:24:48.427Z,18.21
2022-08-28T02:25:48.531Z,18.07
2022-08-28T02:26:48.554Z,18.04
2022-08-28T02:27:48.579Z,18.13
2022-08-28T02:28:48.629Z,18.12
2022-08-28T02:29:48.682Z,18.02
2022-08-28T02:30:48.811Z,17.97
2022-08-28T02:31:48.803Z,17.95
2022-08-28T02:32:48.866Z,17.97
2022-08-28T02:33:48.882Z,17.99
2022-08-28T02:34:48.933Z,18.00
2022-08-28T02:35:48.985Z,18.00
2022-08-28T02:36:49.032Z,17.97
2022-08-28T02:37:49.107Z,18.03
2022-08-28T02:38:49.136Z,17.91
2022-08-28T02:39:49.187Z,18.02
2022-08-28T02:40:49.243Z,17.92
2022-08-28T02:41:49.288Z,17.87
2022-08-28T02:42:49.369Z,17.88
2022-08-28T02:43:49.389Z,17.88
2022-08-28T02:44:49.440Z,17.84
2022-08-28T02:45:49.540Z,17.81
2022-08-28T02:46:49.543Z,17.87
2022-08-28T02:47:49.620Z,17.84
2022-08-28T02:48:49.643Z,17.84
2022-08-28T02:49:49.693Z,17.78
2022-08-28T02:50:49.739Z,17.74
2022-08-28T02:51:49.795Z,17.70
2022-08-28T02:52:49.881Z,17.73
2022-08-28T02:53:49.893Z,17.64
2022-08-28T02:54:49.945Z,17.69
2022-08-28T02:55:49.995Z,17.69
2022-08-28T02:56:50.046Z,17.69
2022-08-28T02:57:50.120Z,17.64
2022-08-28T02:58:50.149Z,17.70
2022-08-28T02:59:50.285Z,17.66
2022-08-28T03:00:50.247Z,17.66
2022-08-28T03:01:50.329Z,17.64
2022-08-28T03:02:50.399Z,17.67
2022-08-28T03:03:50.399Z,17.69
2022-08-28T03:04:50.472Z,17.66
2022-08-28T03:05:50.528Z,17.69
2022-08-28T03:06:50.553Z,17.70
2022-08-28T03:07:50.605Z,17.67
2022-08-28T03:08:50.652Z,17.64
2022-08-28T03:09:50.703Z,17.73
2022-08-28T03:10:50.782Z,17.67
2022-08-28T03:11:50.809Z,17.67
2022-08-28T03:12:50.851Z,17.63
2022-08-28T03:13:50.905Z,17.66
2022-08-28T03:14:50.973Z,17.59
2022-08-28T03:15:51.941Z,17.55
2022-08-28T03:16:51.069Z,17.48
2022-08-28T03:17:51.102Z,17.50
2022-08-28T03:18:51.160Z,17.51
2022-08-28T03:19:51.202Z,17.59
2022-08-28T03:20:51.274Z,17.48
2022-08-28T03:21:52.332Z,17.53
2022-08-28T03:22:51.415Z,17.54
2022-08-28T03:23:51.406Z,17.64
2022-08-28T03:24:51.455Z,17.53
2022-08-28T03:25:51.505Z,17.54
2022-08-28T03:26:51.556Z,17.53
2022-08-28T03:27:51.634Z,17.48
2022-08-28T03:28:51.655Z,17.47
2022-08-28T03:29:51.703Z,17.51
2022-08-28T03:30:51.823Z,17.50
2022-08-28T03:31:51.805Z,17.44
2022-08-28T03:32:51.886Z,17.47
2022-08-28T03:33:51.912Z,17.47
2022-08-28T03:34:51.962Z,17.54
2022-08-28T03:35:52.033Z,17.55
2022-08-28T03:36:52.058Z,17.44
2022-08-28T03:37:52.147Z,17.46
2022-08-28T03:38:52.167Z,17.44
2022-08-28T03:39:52.293Z,17.38
2022-08-28T03:40:52.259Z,17.35
2022-08-28T03:41:52.308Z,17.47
2022-08-28T03:42:53.450Z,17.35
2022-08-28T03:43:52.438Z,17.30
2022-08-28T03:44:52.458Z,17.38
2022-08-28T03:45:52.571Z,17.36
2022-08-28T03:46:52.560Z,17.33
2022-08-28T03:47:52.641Z,17.36
2022-08-28T03:48:52.660Z,17.38
2022-08-28T03:49:52.713Z,17.30
2022-08-28T03:50:52.764Z,17.32
2022-08-28T03:51:52.810Z,17.28
2022-08-28T03:52:52.890Z,17.38
2022-08-28T03:53:52.915Z,17.29
2022-08-28T03:54:52.963Z,17.35
2022-08-28T03:55:53.015Z,17.32
2022-08-28T03:56:53.063Z,17.25
2022-08-28T03:57:53.148Z,17.28
2022-08-28T03:58:53.162Z,17.25
2022-08-28T03:59:53.213Z,17.25
2022-08-28T04:00:53.263Z,17.26
2022-08-28T04:01:53.355Z,17.33
2022-08-28T04:02:53.412Z,17.38
2022-08-28T04:03:53.417Z,17.28
2022-08-28T04:04:53.463Z,17.28
2022-08-28T04:05:53.538Z,17.28
2022-08-28T04:06:53.568Z,17.29
2022-08-28T04:07:53.616Z,17.30
2022-08-28T04:08:53.687Z,17.28
2022-08-28T04:09:53.742Z,17.32
2022-08-28T04:10:53.796Z,17.29
2022-08-28T04:11:53.818Z,17.40
2022-08-28T04:12:53.865Z,17.22
2022-08-28T04:13:53.921Z,17.26
2022-08-28T04:14:53.966Z,17.17
2022-08-28T04:15:54.039Z,17.26
2022-08-28T04:16:55.885Z,17.18
2022-08-28T04:17:54.117Z,17.25
2022-08-28T04:18:54.194Z,17.32
2022-08-28T04:19:54.221Z,17.29
2022-08-28T04:20:54.268Z,17.29
2022-08-28T04:21:54.316Z,17.25
2022-08-28T04:22:55.228Z,17.26
2022-08-28T04:23:54.447Z,17.18
2022-08-28T04:24:54.476Z,17.28
2022-08-28T04:25:54.517Z,17.26
2022-08-28T04:26:54.569Z,17.26
2022-08-28T04:27:54.620Z,17.22
2022-08-28T04:28:55.284Z,17.22
2022-08-28T04:29:54.743Z,17.29
2022-08-28T04:30:54.768Z,17.23
2022-08-28T04:31:54.868Z,17.23
2022-08-28T04:32:54.871Z,17.22
2022-08-28T04:33:54.937Z,17.29
2022-08-28T04:34:54.992Z,17.25
2022-08-28T04:35:55.021Z,17.26
2022-08-28T04:36:55.075Z,17.28
2022-08-28T04:37:58.707Z,17.22
2022-08-28T04:38:55.201Z,17.22
2022-08-28T04:39:55.282Z,17.23
2022-08-28T04:40:55.272Z,17.15
2022-08-28T04:41:55.344Z,17.17
2022-08-28T04:42:55.373Z,17.23
2022-08-28T04:43:55.461Z,17.25
2022-08-28T04:44:55.506Z,17.32
2022-08-28T04:45:55.560Z,17.25
2022-08-28T04:46:55.576Z,17.29
2022-08-28T04:47:55.633Z,17.20
2022-08-28T04:48:55.673Z,17.32
2022-08-28T04:49:55.757Z,17.32
2022-08-28T04:50:55.776Z,17.32
2022-08-28T04:51:55.827Z,17.36
2022-08-28T04:52:55.875Z,17.33
2022-08-28T04:53:55.922Z,17.32
2022-08-28T04:54:56.006Z,17.33
2022-08-28T04:55:56.025Z,17.38
2022-08-28T04:56:56.110Z,17.41
2022-08-28T04:57:56.127Z,17.43
2022-08-28T04:58:56.174Z,17.36
2022-08-28T04:59:56.227Z,17.38
2022-08-28T05:00:56.333Z,17.41
2022-08-28T05:01:56.386Z,17.48
2022-08-28T05:02:56.378Z,17.59
2022-08-28T05:03:56.454Z,17.48
2022-08-28T05:04:56.477Z,17.47
2022-08-28T05:05:56.530Z,17.54
2022-08-28T05:06:56.596Z,17.50
2022-08-28T05:07:56.658Z,17.50
2022-08-28T05:08:56.696Z,17.48
2022-08-28T05:09:56.731Z,17.48
2022-08-28T05:10:56.787Z,17.50
2022-08-28T05:11:56.830Z,17.54
2022-08-28T05:12:56.908Z,17.59
2022-08-28T05:13:56.928Z,17.54
2022-08-28T05:14:57.036Z,17.51
2022-08-28T05:15:57.052Z,17.48
2022-08-28T05:16:57.079Z,17.62
2022-08-28T05:17:57.135Z,17.53
2022-08-28T05:18:57.181Z,17.64
2022-08-28T05:19:57.263Z,17.62
2022-08-28T05:20:57.284Z,17.67
2022-08-28T05:21:57.340Z,17.66
2022-08-28T05:22:57.384Z,17.67
2022-08-28T05:23:57.512Z,17.63
2022-08-28T05:24:57.483Z,17.64
2022-08-28T05:25:57.533Z,17.70
2022-08-28T05:26:57.581Z,17.74
2022-08-28T05:27:57.631Z,17.73
2022-08-28T05:28:57.703Z,17.74
2022-08-28T05:30:01.729Z,17.79
2022-08-28T05:30:57.795Z,17.73
2022-08-28T05:31:57.890Z,17.84
2022-08-28T05:32:57.880Z,17.81
2022-08-28T05:33:57.961Z,17.89
2022-08-28T05:34:57.984Z,17.89
2022-08-28T05:35:58.036Z,18.03
2022-08-28T05:36:58.087Z,17.99
2022-08-28T05:37:58.211Z,18.00
2022-08-28T05:38:58.211Z,18.00
2022-08-28T05:39:58.272Z,18.03
2022-08-28T05:40:58.285Z,18.18
2022-08-28T05:41:58.337Z,18.17
2022-08-28T05:42:58.385Z,18.12
2022-08-28T05:43:58.468Z,18.21
2022-08-28T05:44:58.491Z,18.25
2022-08-28T05:45:58.570Z,18.27
2022-08-28T05:46:58.593Z,18.28
2022-08-28T05:47:58.638Z,18.34
2022-08-28T05:48:58.717Z,18.40
2022-08-28T05:49:58.741Z,18.43
2022-08-28T05:50:58.794Z,18.37
2022-08-28T05:51:58.844Z,18.50
2022-08-28T05:52:58.891Z,18.52
2022-08-28T05:53:58.967Z,18.57
2022-08-28T05:54:59.025Z,18.65
2022-08-28T05:55:59.046Z,18.68
2022-08-28T05:56:59.093Z,18.64
2022-08-28T05:57:59.150Z,18.68
2022-08-28T05:58:59.197Z,18.64
2022-08-28T05:59:59.273Z,18.76
2022-08-28T06:00:59.298Z,18.79
2022-08-28T06:02:04.016Z,18.79
2022-08-28T06:02:59.402Z,18.74
2022-08-28T06:03:59.498Z,18.79
2022-08-28T06:04:59.521Z,18.82
2022-08-28T06:05:59.551Z,18.82
2022-08-28T06:06:59.624Z,18.82
2022-08-28T06:07:59.680Z,18.84
2022-08-28T06:08:59.708Z,18.84
2022-08-28T06:09:59.754Z,18.86
2022-08-28T06:10:59.806Z,18.91
2022-08-28T06:11:59.860Z,18.90
2022-08-28T06:12:59.933Z,19.01
2022-08-28T06:13:59.959Z,19.05
2022-08-28T06:15:00.012Z,19.13
2022-08-28T06:16:00.150Z,19.23
2022-08-28T06:17:00.135Z,19.17
2022-08-28T06:18:00.162Z,19.21
2022-08-28T06:19:00.732Z,19.14
2022-08-28T06:20:00.273Z,19.28
2022-08-28T06:21:00.350Z,19.33
2022-08-28T06:22:00.374Z,19.36
2022-08-28T06:23:00.419Z,19.40
2022-08-28T06:24:00.474Z,19.43
2022-08-28T06:25:00.522Z,19.38
2022-08-28T06:26:00.622Z,19.36
2022-08-28T06:27:00.622Z,19.51
2022-08-28T06:28:00.682Z,19.53
2022-08-28T06:29:00.731Z,19.54
2022-08-28T06:30:00.780Z,19.63
2022-08-28T06:31:18.510Z,19.73
2022-08-28T06:32:01.028Z,19.79
2022-08-28T06:33:00.928Z,19.84
2022-08-28T06:34:00.983Z,19.98
2022-08-28T06:35:01.034Z,20.05
2022-08-28T06:36:01.086Z,20.13
2022-08-28T06:37:01.160Z,20.23
2022-08-28T06:38:01.189Z,20.31
2022-08-28T06:39:01.236Z,20.43
2022-08-28T06:40:01.308Z,20.53
2022-08-28T06:41:01.343Z,20.64
2022-08-28T06:42:01.427Z,20.69
2022-08-28T06:43:01.441Z,20.68
2022-08-28T06:44:01.491Z,20.77
2022-08-28T06:45:01.547Z,20.93
2022-08-28T06:46:01.664Z,21.06
2022-08-28T06:47:01.682Z,21.30
2022-08-28T06:48:01.703Z,21.64
2022-08-28T06:49:01.751Z,21.78
2022-08-28T06:50:01.809Z,22.02
2022-08-28T06:51:01.869Z,22.32
2022-08-28T06:52:01.937Z,22.65
2022-08-28T06:53:01.964Z,22.84
2022-08-28T06:54:02.016Z,22.96
2022-08-28T06:55:02.069Z,22.94
2022-08-28T06:56:02.115Z,23.05
2022-08-28T06:57:02.199Z,23.05
2022-08-28T06:58:02.237Z,23.12
2022-08-28T06:59:02.281Z,23.04
2022-08-28T07:00:02.338Z,23.22
2022-08-28T07:01:03.120Z,23.47
2022-08-28T07:02:02.593Z,23.58
2022-08-28T07:03:02.553Z,23.58
2022-08-28T07:04:02.569Z,23.92
2022-08-28T07:05:02.602Z,24.05
2022-08-28T07:06:02.656Z,23.77
2022-08-28T07:07:02.736Z,23.90
2022-08-28T07:08:02.766Z,23.98
2022-08-28T07:09:02.814Z,24.35
2022-08-28T07:10:02.873Z,24.54
2022-08-28T07:11:02.921Z,24.77
2022-08-28T07:12:03.010Z,24.76
2022-08-28T07:13:03.032Z,24.47
2022-08-28T07:14:03.086Z,24.05
2022-08-28T07:15:03.141Z,23.77
2022-08-28T07:16:03.284Z,23.50
2022-08-28T07:17:03.312Z,23.40
2022-08-28T07:18:03.301Z,23.60
2022-08-28T07:19:03.357Z,23.65
2022-08-28T07:20:03.409Z,23.80
2022-08-28T07:21:03.463Z,24.08
2022-08-28T07:22:03.541Z,23.86
2022-08-28T07:23:03.573Z,23.72
2022-08-28T07:24:03.627Z,23.82
2022-08-28T07:25:03.682Z,23.58
2022-08-28T07:26:03.740Z,23.85
2022-08-28T07:27:03.824Z,23.70
2022-08-28T07:28:03.849Z,23.53
2022-08-28T07:29:10.231Z,23.46
2022-08-28T07:30:03.954Z,23.22
2022-08-28T07:31:04.041Z,23.11
2022-08-28T07:32:04.085Z,23.12
2022-08-28T07:33:04.141Z,22.97
2022-08-28T07:34:04.173Z,22.82
2022-08-28T07:35:04.251Z,22.80
2022-08-28T07:36:04.282Z,22.69
2022-08-28T07:37:04.360Z,22.75
2022-08-28T07:38:04.416Z,22.78
2022-08-28T07:39:04.445Z,22.84
2022-08-28T07:40:04.527Z,23.04
2022-08-28T07:41:04.552Z,23.09
2022-08-28T09:08:49.300Z,25.84
2022-08-28T09:09:48.325Z,25.82
2022-08-28T09:10:48.417Z,25.94
2022-08-28T09:11:50.367Z,26.24
2022-08-28T09:12:48.488Z,26.31
2022-08-28T09:13:48.539Z,26.57
2022-08-28T09:14:48.597Z,26.84
2022-08-28T09:15:50.735Z,26.98
2022-08-28T09:16:48.733Z,26.95
2022-08-28T09:17:48.789Z,26.79
2022-08-28T09:24:35.521Z,26.98
2022-08-28T09:25:35.555Z,26.91
2022-08-28T09:26:35.609Z,26.87
2022-08-28T09:27:35.965Z,26.99
2022-08-28T09:28:35.747Z,26.99
2022-08-28T09:29:35.780Z,26.81
2022-08-28T09:30:35.864Z,26.43
2022-08-28T09:31:35.893Z,26.29
2022-08-28T09:32:35.979Z,26.55
2022-08-28T09:33:36.035Z,26.59
2022-08-28T09:34:38.948Z,26.43
2022-08-28T09:35:36.126Z,26.06
2022-08-28T09:36:36.178Z,25.89
2022-08-28T09:37:36.236Z,26.27
2022-08-28T09:38:46.372Z,26.32
2022-08-28T09:39:36.352Z,26.18
2022-08-28T09:40:36.460Z,26.21
2022-08-28T09:41:36.465Z,26.09
2022-08-28T09:42:36.521Z,25.93
2022-08-28T09:43:36.607Z,25.72
2022-08-28T09:44:39.272Z,25.77
2022-08-28T09:53:27.658Z,27.43
2022-08-28T09:54:27.600Z,27.67
2022-08-28T09:55:27.666Z,27.88
2022-08-28T09:56:27.750Z,27.73
2022-08-28T09:57:29.834Z,27.88
2022-08-28T09:58:27.822Z,27.64
2022-08-28T09:59:27.882Z,26.84
2022-08-28T10:00:27.945Z,26.54
2022-08-28T10:03:22.216Z,26.29
2022-08-28T10:18:52.901Z,25.17
2022-08-28T10:19:53.620Z,25.09
2022-08-28T10:32:08.761Z,25.91
2022-08-28T10:34:47.874Z,25.91
2022-08-28T10:35:47.905Z,26.17
2022-08-28T10:36:47.956Z,26.47
2022-08-28T10:37:48.042Z,26.87
2022-08-28T10:38:51.255Z,27.13
2022-08-28T10:39:48.119Z,27.32
2022-08-28T10:40:48.179Z,27.62
2022-08-28T10:41:48.228Z,27.57
2022-08-28T10:42:48.349Z,27.70
2022-08-28T10:43:48.341Z,27.79
2022-08-28T10:44:48.400Z,27.82
2022-08-28T10:45:48.514Z,28.03
2022-08-28T10:46:48.512Z,27.82
2022-08-28T10:47:48.596Z,27.79
2022-08-28T10:48:48.647Z,27.86
2022-08-28T10:49:48.689Z,27.99
2022-08-28T10:50:48.768Z,28.16
2022-08-28T10:51:48.832Z,28.28
2022-08-28T10:52:48.860Z,28.07
2022-08-28T10:53:48.944Z,28.13
2022-08-28T10:54:48.980Z,27.67
2022-08-28T10:55:49.034Z,27.64
2022-08-28T10:56:56.434Z,27.89
2022-08-28T10:57:49.155Z,28.25
2022-08-28T10:58:49.236Z,28.13
2022-08-28T10:59:49.269Z,27.98
2022-08-28T11:00:49.351Z,28.19
2022-08-28T11:01:49.440Z,28.23
2022-08-28T11:02:49.499Z,28.38
2022-08-28T11:03:49.534Z,28.48
2022-08-28T11:04:49.677Z,28.75
2022-08-28T11:05:53.819Z,28.80
2022-08-28T11:06:49.697Z,28.50
2022-08-28T11:07:49.746Z,28.33
2022-08-28T11:08:49.804Z,28.38
2022-08-28T11:09:49.890Z,28.41
2022-08-28T11:10:49.928Z,28.65
2022-08-28T11:11:49.982Z,28.78
2022-08-28T11:12:50.045Z,28.93
2022-08-28T11:13:50.104Z,29.19
2022-08-28T11:14:50.195Z,28.95
2022-08-28T11:15:50.219Z,28.93
2022-08-28T11:16:50.343Z,28.41
2022-08-28T11:17:50.342Z,28.10
2022-08-28T11:18:50.408Z,27.85
2022-08-28T11:19:52.372Z,27.73
2022-08-28T11:20:50.524Z,27.82
2022-08-28T11:21:50.588Z,27.71
2022-08-28T11:22:50.646Z,27.79
2022-08-28T11:23:50.710Z,28.07
2022-08-28T11:24:50.788Z,28.35
2022-08-28T11:25:50.832Z,28.70
2022-08-28T11:26:50.886Z,28.82
2022-08-28T11:27:50.971Z,29.10
2022-08-28T11:28:51.006Z,29.25
2022-08-28T11:29:51.102Z,29.59
2022-08-28T11:30:51.156Z,29.57
2022-08-28T11:31:51.211Z,29.86
2022-08-28T11:32:51.258Z,29.56
2022-08-28T11:33:51.335Z,29.37
2022-08-28T11:34:51.384Z,29.03
2022-08-28T11:35:51.436Z,29.00
2022-08-28T11:36:51.493Z,28.97
2022-08-28T11:37:51.555Z,28.75
2022-08-28T11:38:51.645Z,28.68
2022-08-28T11:39:51.680Z,28.41
2022-08-28T11:40:51.737Z,28.26
2022-08-28T11:41:51.795Z,27.95
2022-08-28T11:42:51.856Z,28.04
2022-08-28T11:43:51.986Z,27.84
2022-08-28T11:44:51.980Z,27.86
2022-08-28T11:45:52.101Z,27.84
2022-08-28T11:46:52.106Z,27.69
2022-08-28T11:47:52.172Z,27.29
2022-08-28T11:48:52.247Z,26.99
2022-08-28T11:49:52.290Z,27.04
2022-08-28T11:50:52.346Z,27.50
2022-08-28T11:51:52.436Z,27.86
2022-08-28T11:52:52.470Z,28.46
2022-08-28T11:53:52.538Z,28.82
2022-08-28T11:54:52.589Z,28.50
2022-08-28T11:55:52.650Z,28.40
2022-08-28T11:56:52.735Z,28.11
2022-08-28T11:57:52.792Z,28.26
2022-08-28T11:58:52.830Z,28.58
2022-08-28T11:59:52.895Z,28.78
2022-08-28T12:00:52.965Z,28.63
2022-08-28T12:01:53.037Z,28.29
2022-08-28T12:02:53.193Z,27.94
2022-08-28T12:03:53.207Z,27.89
2022-08-28T12:04:53.201Z,27.57
2022-08-28T12:05:53.261Z,27.48
2022-08-28T12:06:53.322Z,27.20
2022-08-28T12:07:53.412Z,27.74
2022-08-28T12:08:53.445Z,28.25
2022-08-28T12:09:53.504Z,28.54
2022-08-28T12:10:53.570Z,28.73
2022-08-28T12:11:53.631Z,28.32
2022-08-28T12:12:53.719Z,28.50
2022-08-28T12:13:53.780Z,28.56
2022-08-28T12:14:53.817Z,28.81
2022-08-28T12:15:53.954Z,29.29
2022-08-28T12:16:53.938Z,29.60
2022-08-28T12:17:54.002Z,29.55
2022-08-28T12:18:54.088Z,29.86
2022-08-28T12:19:55.900Z,29.26
2022-08-28T12:20:54.183Z,28.43
2022-08-28T12:21:54.245Z,27.51
2022-08-28T12:22:54.334Z,27.29
2022-08-28T12:23:58.039Z,26.59
2022-08-28T12:24:54.576Z,26.68
2022-08-28T12:25:54.506Z,26.57
2022-08-28T12:26:54.555Z,26.91
2022-08-28T12:27:54.617Z,27.10
2022-08-28T12:28:54.680Z,27.32
2022-08-28T12:29:54.778Z,27.36
2022-08-28T12:30:54.878Z,27.16
2022-08-28T12:31:54.862Z,27.04
2022-08-28T12:32:54.949Z,27.02
2022-08-28T12:33:54.981Z,26.77
2022-08-28T12:34:55.041Z,26.74
2022-08-28T12:35:55.102Z,26.64
2022-08-28T12:36:55.166Z,26.35
2022-08-28T12:37:55.247Z,26.22
2022-08-28T12:38:55.280Z,26.18
2022-08-28T12:39:55.365Z,26.09
2022-08-28T12:40:55.423Z,25.98
2022-08-28T12:41:55.454Z,25.93
2022-08-28T12:42:55.863Z,25.91
2022-08-28T12:43:55.570Z,26.01
2022-08-28T12:44:55.628Z,26.46
2022-08-28T12:45:55.750Z,26.54
2022-08-28T12:46:55.742Z,26.94
2022-08-28T12:47:55.822Z,27.11
2022-08-28T12:48:55.893Z,27.19
2022-08-28T12:49:55.918Z,27.21
2022-08-28T12:50:55.976Z,27.21
2022-08-28T12:51:56.034Z,27.31
2022-08-28T12:52:56.096Z,27.17
2022-08-28T12:53:56.177Z,27.61
2022-08-28T12:54:56.212Z,27.86
2022-08-28T12:55:56.264Z,27.91
2022-08-28T12:56:56.340Z,28.22
2022-08-28T12:57:56.387Z,28.33
2022-08-28T12:58:56.469Z,28.40
2022-08-28T12:59:56.501Z,28.73
2022-08-28T13:00:56.625Z,28.81
2022-08-28T13:01:56.728Z,28.87
2022-08-28T13:02:56.680Z,29.18
2022-08-28T13:03:56.780Z,29.47
2022-08-28T13:04:56.800Z,29.71
2022-08-28T13:05:56.860Z,29.74
2022-08-28T13:06:56.922Z,29.84
2022-08-28T13:07:56.989Z,29.99
2022-08-28T13:08:57.083Z,29.84
2022-08-28T13:09:57.109Z,29.90
2022-08-28T13:10:57.178Z,30.16
2022-08-28T13:11:57.233Z,30.26
2022-08-28T13:12:59.814Z,30.26
2022-08-28T13:13:57.394Z,30.29
2022-08-28T13:14:57.426Z,30.61
2022-08-28T13:15:57.489Z,30.64
2022-08-28T13:16:57.618Z,30.72
2022-08-28T13:17:57.612Z,30.86
2022-08-28T13:18:59.622Z,31.17
2022-08-28T13:19:57.742Z,31.49
2022-08-28T13:20:57.798Z,31.75
2022-08-28T13:21:57.863Z,31.91
2022-08-28T13:22:57.933Z,32.14
2022-08-28T13:23:58.034Z,31.57
2022-08-28T13:24:58.056Z,31.70
2022-08-28T13:25:58.125Z,31.61
2022-08-28T13:26:58.184Z,31.76
2022-08-28T13:27:58.249Z,31.87
2022-08-28T13:28:58.336Z,31.96
2022-08-28T13:30:00.085Z,31.98
2022-08-28T13:30:58.496Z,32.13
2022-08-28T13:31:58.515Z,32.10
2022-08-28T13:32:58.604Z,31.88
2022-08-28T13:33:58.634Z,31.72
2022-08-28T13:34:58.697Z,31.95
2022-08-28T13:35:58.764Z,31.82
2022-08-28T13:36:58.825Z,31.36
2022-08-28T13:37:58.918Z,31.23
2022-08-28T13:38:58.957Z,31.33
2022-08-28T13:39:59.090Z,31.35
2022-08-28T13:40:59.850Z,31.45
2022-08-28T13:41:59.154Z,31.46
2022-08-28T13:42:59.251Z,31.36
2022-08-28T13:43:59.290Z,31.72
2022-08-28T13:44:59.350Z,31.42
2022-08-28T13:45:59.501Z,31.58
2022-08-28T13:46:59.477Z,31.36
2022-08-28T13:47:59.563Z,31.99
2022-08-28T13:48:59.609Z,32.13
2022-08-28T13:49:59.698Z,31.98
2022-08-28T13:50:59.736Z,32.13
2022-08-28T13:51:59.839Z,32.40
2022-08-28T13:52:59.864Z,32.29
2022-08-28T13:54:00.634Z,32.73
2022-08-28T13:55:00.028Z,32.73
2022-08-28T13:56:00.086Z,32.48
2022-08-28T13:57:00.133Z,32.52
2022-08-28T13:58:00.220Z,32.47
2022-08-28T13:59:00.258Z,32.70
2022-08-28T14:00:00.323Z,32.99
2022-08-28T14:01:00.484Z,32.14
2022-08-28T14:02:00.656Z,31.84
2022-08-28T14:03:00.541Z,31.28
2022-08-28T14:04:00.587Z,30.78
2022-08-28T14:05:00.650Z,29.81
2022-08-28T14:06:00.717Z,29.31
2022-08-28T14:07:01.199Z,28.44
2022-08-28T14:08:00.847Z,27.80
2022-08-28T14:09:00.909Z,27.41
2022-08-28T14:10:00.971Z,27.17
2022-08-28T14:11:01.032Z,27.20
2022-08-28T14:12:01.123Z,27.95
2022-08-28T14:13:01.158Z,28.78
2022-08-28T14:14:01.217Z,29.50
2022-08-28T14:15:01.283Z,29.86
2022-08-28T14:16:01.382Z,29.65
2022-08-28T14:18:42.234Z,30.11
2022-08-28T14:19:33.589Z,30.76
2022-08-28T14:20:33.651Z,31.06
2022-08-28T14:21:33.711Z,30.84
2022-08-28T14:22:33.772Z,31.50
2022-08-28T14:23:33.867Z,31.85
2022-08-28T14:24:33.898Z,31.75
2022-08-28T14:25:38.954Z,31.61
2022-08-28T14:26:34.027Z,31.15
2022-08-28T14:27:34.087Z,31.26
2022-08-28T14:28:34.177Z,31.28
2022-08-28T14:29:34.218Z,31.45
2022-08-28T14:30:34.282Z,30.69
2022-08-28T14:31:34.404Z,30.76
2022-08-28T14:32:34.408Z,29.96
2022-08-28T14:33:36.997Z,29.23
2022-08-28T14:36:25.220Z,29.44
2022-08-28T14:37:25.252Z,29.60
2022-08-28T14:38:25.312Z,29.52
2022-08-28T14:39:25.374Z,30.02
2022-08-28T14:40:25.487Z,30.78
2022-08-28T14:41:25.525Z,31.45
2022-08-28T14:42:25.562Z,32.21
2022-08-28T14:43:25.626Z,32.54
2022-08-28T14:44:25.693Z,32.80
2022-08-28T14:45:25.820Z,32.59
2022-08-28T14:46:25.855Z,32.44
2022-08-28T14:47:25.911Z,31.79
2022-08-28T14:48:25.944Z,30.11
2022-08-28T14:49:26.015Z,29.50
2022-08-28T14:50:26.071Z,29.28
2022-08-28T14:51:26.137Z,29.44
2022-08-28T14:52:26.229Z,29.71
2022-08-28T14:53:26.260Z,30.26
2022-08-28T14:54:26.324Z,30.90
2022-08-28T14:55:26.395Z,30.76
2022-08-28T14:56:26.451Z,30.87
2022-08-28T14:57:26.548Z,30.90
2022-08-28T14:58:26.577Z,31.09
2022-08-28T14:59:26.641Z,30.74
2022-08-28T15:00:26.711Z,30.81
2022-08-28T15:01:26.857Z,30.80
2022-08-28T15:02:26.861Z,30.68
2022-08-28T15:03:26.900Z,30.53
2022-08-28T15:04:26.996Z,30.64
2022-08-28T15:05:27.049Z,31.05
2022-08-28T15:06:27.088Z,30.99